sensor_id;sensor_type;location;lat;lon;timestamp;P1;durP1;ratioP1;P2;durP2;ratioP2
46415;SDS011;32620;51.704;7.822;2023-04-15T00:01:33;12.55;;;9.00;;
46415;SDS011;32620;51.704;7.822;2023-04-15T00:04:01;14.50;;;9.18;;
46415;SDS011;32620;51.704;7.822;2023-04-15T00:06:26;17.75;;;9.57;;
46415;SDS011;32620;51.704;7.822;2023-04-15T00:08:52;18.80;;;9.98;;
46415;SDS011;32620;51.704;7.822;2023-04-15T00:11:17;13.70;;;9.20;;
46415;SDS011;32620;51.704;7.822;2023-04-15T00:13:43;19.23;;;9.23;;
46415;SDS011;32620;51.704;7.822;2023-04-15T00:16:09;14.25;;;8.73;;
46415;SDS011;32620;51.704;7.822;2023-04-15T00:18:35;13.73;;;9.45;;
46415;SDS011;32620;51.704;7.822;2023-04-15T00:21:01;16.38;;;10.05;;
46415;SDS011;32620;51.704;7.822;2023-04-15T00:23:27;15.82;;;9.00;;
46415;SDS011;32620;51.704;7.822;2023-04-15T00:25:53;11.57;;;8.82;;
46415;SDS011;32620;51.704;7.822;2023-04-15T00:28:19;17.35;;;9.90;;
46415;SDS011;32620;51.704;7.822;2023-04-15T00:30:44;15.93;;;9.88;;
46415;SDS011;32620;51.704;7.822;2023-04-15T00:33:11;14.70;;;9.80;;
46415;SDS011;32620;51.704;7.822;2023-04-15T00:35:37;17.08;;;10.40;;
46415;SDS011;32620;51.704;7.822;2023-04-15T00:38:03;16.63;;;9.77;;
46415;SDS011;32620;51.704;7.822;2023-04-15T00:40:29;19.80;;;10.02;;
46415;SDS011;32620;51.704;7.822;2023-04-15T00:42:55;16.95;;;9.82;;
46415;SDS011;32620;51.704;7.822;2023-04-15T00:45:22;19.05;;;10.02;;
46415;SDS011;32620;51.704;7.822;2023-04-15T00:47:48;15.10;;;10.02;;
46415;SDS011;32620;51.704;7.822;2023-04-15T00:50:15;15.70;;;10.10;;
46415;SDS011;32620;51.704;7.822;2023-04-15T00:52:41;16.85;;;10.07;;
46415;SDS011;32620;51.704;7.822;2023-04-15T00:55:08;15.75;;;9.43;;
46415;SDS011;32620;51.704;7.822;2023-04-15T00:57:41;16.77;;;10.43;;
46415;SDS011;32620;51.704;7.822;2023-04-15T01:00:10;16.13;;;10.25;;
46415;SDS011;32620;51.704;7.822;2023-04-15T01:02:40;17.30;;;10.10;;
46415;SDS011;32620;51.704;7.822;2023-04-15T01:05:08;16.42;;;10.82;;
46415;SDS011;32620;51.704;7.822;2023-04-15T01:07:34;12.57;;;9.73;;
46415;SDS011;32620;51.704;7.822;2023-04-15T01:10:01;15.95;;;9.98;;
46415;SDS011;32620;51.704;7.822;2023-04-15T01:12:28;17.05;;;10.73;;
46415;SDS011;32620;51.704;7.822;2023-04-15T01:14:54;13.70;;;9.73;;
46415;SDS011;32620;51.704;7.822;2023-04-15T01:17:21;13.20;;;9.05;;
46415;SDS011;32620;51.704;7.822;2023-04-15T01:19:47;16.73;;;10.93;;
46415;SDS011;32620;51.704;7.822;2023-04-15T01:22:15;15.63;;;9.90;;
46415;SDS011;32620;51.704;7.822;2023-04-15T01:24:43;13.60;;;10.15;;
46415;SDS011;32620;51.704;7.822;2023-04-15T01:27:10;15.75;;;11.32;;
46415;SDS011;32620;51.704;7.822;2023-04-15T01:29:37;17.73;;;9.85;;
46415;SDS011;32620;51.704;7.822;2023-04-15T01:32:03;15.48;;;10.80;;
46415;SDS011;32620;51.704;7.822;2023-04-15T01:34:43;19.08;;;10.48;;
46415;SDS011;32620;51.704;7.822;2023-04-15T01:37:11;19.77;;;11.02;;
46415;SDS011;32620;51.704;7.822;2023-04-15T01:39:37;18.80;;;11.77;;
46415;SDS011;32620;51.704;7.822;2023-04-15T01:42:03;21.30;;;12.13;;
46415;SDS011;32620;51.704;7.822;2023-04-15T01:44:29;19.52;;;11.55;;
46415;SDS011;32620;51.704;7.822;2023-04-15T01:46:55;19.83;;;11.82;;
46415;SDS011;32620;51.704;7.822;2023-04-15T01:49:21;19.88;;;12.07;;
46415;SDS011;32620;51.704;7.822;2023-04-15T01:51:47;18.63;;;11.27;;
46415;SDS011;32620;51.704;7.822;2023-04-15T01:54:14;15.77;;;11.32;;
46415;SDS011;32620;51.704;7.822;2023-04-15T01:56:40;17.30;;;11.77;;
46415;SDS011;32620;51.704;7.822;2023-04-15T01:59:06;17.98;;;11.68;;
46415;SDS011;32620;51.704;7.822;2023-04-15T02:01:32;16.50;;;11.23;;
46415;SDS011;32620;51.704;7.822;2023-04-15T02:03:58;17.90;;;10.90;;
46415;SDS011;32620;51.704;7.822;2023-04-15T02:06:24;19.85;;;12.70;;
46415;SDS011;32620;51.704;7.822;2023-04-15T02:08:52;21.20;;;11.38;;
46415;SDS011;32620;51.704;7.822;2023-04-15T02:11:18;21.38;;;12.82;;
46415;SDS011;32620;51.704;7.822;2023-04-15T02:13:44;18.83;;;12.25;;
46415;SDS011;32620;51.704;7.822;2023-04-15T02:16:17;20.52;;;12.55;;
46415;SDS011;32620;51.704;7.822;2023-04-15T02:18:44;23.17;;;13.85;;
46415;SDS011;32620;51.704;7.822;2023-04-15T02:21:10;27.67;;;14.57;;
46415;SDS011;32620;51.704;7.822;2023-04-15T02:23:35;20.67;;;13.50;;
46415;SDS011;32620;51.704;7.822;2023-04-15T02:26:01;22.45;;;14.23;;
46415;SDS011;32620;51.704;7.822;2023-04-15T02:28:26;20.02;;;13.43;;
46415;SDS011;32620;51.704;7.822;2023-04-15T02:30:52;21.25;;;13.82;;
46415;SDS011;32620;51.704;7.822;2023-04-15T02:33:20;21.38;;;13.68;;
46415;SDS011;32620;51.704;7.822;2023-04-15T02:35:45;23.80;;;14.15;;
46415;SDS011;32620;51.704;7.822;2023-04-15T02:38:11;23.60;;;14.20;;
46415;SDS011;32620;51.704;7.822;2023-04-15T02:40:38;21.20;;;13.48;;
46415;SDS011;32620;51.704;7.822;2023-04-15T02:43:03;23.80;;;14.38;;
46415;SDS011;32620;51.704;7.822;2023-04-15T02:45:30;24.38;;;14.57;;
46415;SDS011;32620;51.704;7.822;2023-04-15T02:47:56;19.80;;;13.82;;
46415;SDS011;32620;51.704;7.822;2023-04-15T02:50:22;23.85;;;14.25;;
46415;SDS011;32620;51.704;7.822;2023-04-15T02:52:49;22.65;;;14.70;;
46415;SDS011;32620;51.704;7.822;2023-04-15T02:55:15;23.67;;;15.52;;
46415;SDS011;32620;51.704;7.822;2023-04-15T02:57:42;22.33;;;14.50;;
46415;SDS011;32620;51.704;7.822;2023-04-15T03:00:08;21.58;;;14.43;;
46415;SDS011;32620;51.704;7.822;2023-04-15T03:02:36;26.15;;;16.25;;
46415;SDS011;32620;51.704;7.822;2023-04-15T03:05:03;23.92;;;15.88;;
46415;SDS011;32620;51.704;7.822;2023-04-15T03:07:30;28.20;;;15.85;;
46415;SDS011;32620;51.704;7.822;2023-04-15T03:09:55;28.80;;;16.52;;
46415;SDS011;32620;51.704;7.822;2023-04-15T03:12:21;26.13;;;16.98;;
46415;SDS011;32620;51.704;7.822;2023-04-15T03:14:46;24.30;;;16.45;;
46415;SDS011;32620;51.704;7.822;2023-04-15T03:17:12;26.73;;;16.48;;
46415;SDS011;32620;51.704;7.822;2023-04-15T03:19:37;27.02;;;16.85;;
46415;SDS011;32620;51.704;7.822;2023-04-15T03:22:03;28.40;;;17.05;;
46415;SDS011;32620;51.704;7.822;2023-04-15T03:24:28;27.52;;;17.05;;
46415;SDS011;32620;51.704;7.822;2023-04-15T03:26:54;27.15;;;17.85;;
46415;SDS011;32620;51.704;7.822;2023-04-15T03:29:21;29.73;;;18.30;;
46415;SDS011;32620;51.704;7.822;2023-04-15T03:31:47;26.48;;;17.88;;
46415;SDS011;32620;51.704;7.822;2023-04-15T03:34:13;27.90;;;17.65;;
46415;SDS011;32620;51.704;7.822;2023-04-15T03:36:38;31.95;;;19.00;;
46415;SDS011;32620;51.704;7.822;2023-04-15T03:39:04;28.52;;;19.17;;
46415;SDS011;32620;51.704;7.822;2023-04-15T03:41:30;30.20;;;18.08;;
46415;SDS011;32620;51.704;7.822;2023-04-15T03:43:56;29.63;;;19.23;;
46415;SDS011;32620;51.704;7.822;2023-04-15T03:46:22;31.00;;;18.60;;
46415;SDS011;32620;51.704;7.822;2023-04-15T03:48:47;28.38;;;19.52;;
46415;SDS011;32620;51.704;7.822;2023-04-15T03:51:13;29.02;;;18.58;;
46415;SDS011;32620;51.704;7.822;2023-04-15T03:53:38;33.63;;;21.33;;
46415;SDS011;32620;51.704;7.822;2023-04-15T03:56:04;32.92;;;20.90;;
46415;SDS011;32620;51.704;7.822;2023-04-15T03:58:29;32.95;;;21.35;;
46415;SDS011;32620;51.704;7.822;2023-04-15T04:00:55;32.33;;;20.80;;
46415;SDS011;32620;51.704;7.822;2023-04-15T04:03:21;34.10;;;21.35;;
46415;SDS011;32620;51.704;7.822;2023-04-15T04:05:46;35.33;;;22.05;;
46415;SDS011;32620;51.704;7.822;2023-04-15T04:08:12;35.00;;;22.95;;
46415;SDS011;32620;51.704;7.822;2023-04-15T04:10:38;33.47;;;22.15;;
46415;SDS011;32620;51.704;7.822;2023-04-15T04:13:04;38.47;;;23.40;;
46415;SDS011;32620;51.704;7.822;2023-04-15T04:15:29;34.97;;;22.27;;
46415;SDS011;32620;51.704;7.822;2023-04-15T04:17:55;35.08;;;22.10;;
46415;SDS011;32620;51.704;7.822;2023-04-15T04:20:21;39.10;;;22.73;;
46415;SDS011;32620;51.704;7.822;2023-04-15T04:22:46;34.20;;;21.83;;
46415;SDS011;32620;51.704;7.822;2023-04-15T04:25:12;35.60;;;22.13;;
46415;SDS011;32620;51.704;7.822;2023-04-15T04:27:38;35.80;;;22.15;;
46415;SDS011;32620;51.704;7.822;2023-04-15T04:30:04;35.13;;;21.52;;
46415;SDS011;32620;51.704;7.822;2023-04-15T04:32:30;35.35;;;21.20;;
46415;SDS011;32620;51.704;7.822;2023-04-15T04:34:56;30.85;;;20.70;;
46415;SDS011;32620;51.704;7.822;2023-04-15T04:37:21;37.08;;;22.33;;
46415;SDS011;32620;51.704;7.822;2023-04-15T04:39:48;35.47;;;21.33;;
46415;SDS011;32620;51.704;7.822;2023-04-15T04:42:14;33.47;;;21.42;;
46415;SDS011;32620;51.704;7.822;2023-04-15T04:44:40;32.22;;;19.50;;
46415;SDS011;32620;51.704;7.822;2023-04-15T04:47:05;33.97;;;21.67;;
46415;SDS011;32620;51.704;7.822;2023-04-15T04:49:31;31.90;;;21.77;;
46415;SDS011;32620;51.704;7.822;2023-04-15T04:51:57;36.30;;;22.52;;
46415;SDS011;32620;51.704;7.822;2023-04-15T04:54:23;37.00;;;22.15;;
46415;SDS011;32620;51.704;7.822;2023-04-15T04:56:48;36.83;;;23.20;;
46415;SDS011;32620;51.704;7.822;2023-04-15T04:59:14;35.60;;;23.73;;
46415;SDS011;32620;51.704;7.822;2023-04-15T05:01:39;36.60;;;21.60;;
46415;SDS011;32620;51.704;7.822;2023-04-15T05:04:05;36.78;;;21.85;;
46415;SDS011;32620;51.704;7.822;2023-04-15T05:06:31;35.42;;;22.88;;
46415;SDS011;32620;51.704;7.822;2023-04-15T05:08:57;33.42;;;20.88;;
46415;SDS011;32620;51.704;7.822;2023-04-15T05:11:22;33.08;;;20.83;;
46415;SDS011;32620;51.704;7.822;2023-04-15T05:13:48;35.65;;;20.83;;
46415;SDS011;32620;51.704;7.822;2023-04-15T05:16:14;35.53;;;22.60;;
46415;SDS011;32620;51.704;7.822;2023-04-15T05:18:39;37.47;;;21.70;;
46415;SDS011;32620;51.704;7.822;2023-04-15T05:21:05;35.22;;;22.65;;
46415;SDS011;32620;51.704;7.822;2023-04-15T05:23:30;32.90;;;20.98;;
46415;SDS011;32620;51.704;7.822;2023-04-15T05:25:56;31.33;;;20.55;;
46415;SDS011;32620;51.704;7.822;2023-04-15T05:28:21;32.05;;;20.48;;
46415;SDS011;32620;51.704;7.822;2023-04-15T05:30:47;33.17;;;20.90;;
46415;SDS011;32620;51.704;7.822;2023-04-15T05:33:13;32.70;;;20.35;;
46415;SDS011;32620;51.704;7.822;2023-04-15T05:35:38;31.67;;;21.45;;
46415;SDS011;32620;51.704;7.822;2023-04-15T05:38:04;32.03;;;20.80;;
46415;SDS011;32620;51.704;7.822;2023-04-15T05:40:29;30.55;;;20.02;;
46415;SDS011;32620;51.704;7.822;2023-04-15T05:42:55;33.15;;;20.77;;
46415;SDS011;32620;51.704;7.822;2023-04-15T05:45:21;31.80;;;20.98;;
46415;SDS011;32620;51.704;7.822;2023-04-15T05:47:46;31.65;;;21.73;;
46415;SDS011;32620;51.704;7.822;2023-04-15T05:50:14;30.83;;;20.25;;
46415;SDS011;32620;51.704;7.822;2023-04-15T05:52:40;33.00;;;21.27;;
46415;SDS011;32620;51.704;7.822;2023-04-15T05:55:05;29.35;;;21.00;;
46415;SDS011;32620;51.704;7.822;2023-04-15T05:57:31;33.65;;;20.70;;
46415;SDS011;32620;51.704;7.822;2023-04-15T05:59:57;33.25;;;20.00;;
46415;SDS011;32620;51.704;7.822;2023-04-15T06:02:22;32.78;;;21.88;;
46415;SDS011;32620;51.704;7.822;2023-04-15T06:04:48;32.47;;;20.33;;
46415;SDS011;32620;51.704;7.822;2023-04-15T06:07:13;33.75;;;20.67;;
46415;SDS011;32620;51.704;7.822;2023-04-15T06:09:39;31.63;;;21.33;;
46415;SDS011;32620;51.704;7.822;2023-04-15T06:12:05;30.20;;;20.25;;
46415;SDS011;32620;51.704;7.822;2023-04-15T06:14:35;31.73;;;20.45;;
46415;SDS011;32620;51.704;7.822;2023-04-15T06:17:02;31.27;;;20.35;;
46415;SDS011;32620;51.704;7.822;2023-04-15T06:19:27;31.27;;;20.75;;
46415;SDS011;32620;51.704;7.822;2023-04-15T06:21:53;32.65;;;21.05;;
46415;SDS011;32620;51.704;7.822;2023-04-15T06:24:19;28.08;;;20.08;;
46415;SDS011;32620;51.704;7.822;2023-04-15T06:26:44;31.00;;;19.95;;
46415;SDS011;32620;51.704;7.822;2023-04-15T06:29:10;29.65;;;20.20;;
46415;SDS011;32620;51.704;7.822;2023-04-15T06:31:35;28.90;;;19.95;;
46415;SDS011;32620;51.704;7.822;2023-04-15T06:34:01;31.40;;;19.80;;
46415;SDS011;32620;51.704;7.822;2023-04-15T06:36:26;30.88;;;19.38;;
46415;SDS011;32620;51.704;7.822;2023-04-15T06:38:52;27.90;;;19.13;;
46415;SDS011;32620;51.704;7.822;2023-04-15T06:41:17;28.77;;;18.50;;
46415;SDS011;32620;51.704;7.822;2023-04-15T06:43:43;28.90;;;19.15;;
46415;SDS011;32620;51.704;7.822;2023-04-15T06:46:09;28.15;;;18.58;;
46415;SDS011;32620;51.704;7.822;2023-04-15T06:48:34;28.08;;;18.70;;
46415;SDS011;32620;51.704;7.822;2023-04-15T06:51:00;28.85;;;18.58;;
46415;SDS011;32620;51.704;7.822;2023-04-15T06:53:26;29.25;;;18.77;;
46415;SDS011;32620;51.704;7.822;2023-04-15T06:55:52;30.73;;;19.38;;
46415;SDS011;32620;51.704;7.822;2023-04-15T06:58:17;28.10;;;18.17;;
46415;SDS011;32620;51.704;7.822;2023-04-15T07:00:43;28.70;;;19.10;;
46415;SDS011;32620;51.704;7.822;2023-04-15T07:03:08;29.75;;;18.65;;
46415;SDS011;32620;51.704;7.822;2023-04-15T07:05:35;26.45;;;17.60;;
46415;SDS011;32620;51.704;7.822;2023-04-15T07:08:00;29.58;;;18.90;;
46415;SDS011;32620;51.704;7.822;2023-04-15T07:10:26;25.58;;;17.35;;
46415;SDS011;32620;51.704;7.822;2023-04-15T07:12:51;26.98;;;18.27;;
46415;SDS011;32620;51.704;7.822;2023-04-15T07:15:17;26.30;;;17.80;;
46415;SDS011;32620;51.704;7.822;2023-04-15T07:17:42;24.67;;;17.73;;
46415;SDS011;32620;51.704;7.822;2023-04-15T07:20:08;26.30;;;17.30;;
46415;SDS011;32620;51.704;7.822;2023-04-15T07:22:34;29.95;;;17.52;;
46415;SDS011;32620;51.704;7.822;2023-04-15T07:24:59;24.65;;;17.50;;
46415;SDS011;32620;51.704;7.822;2023-04-15T07:27:25;27.77;;;17.95;;
46415;SDS011;32620;51.704;7.822;2023-04-15T07:29:51;22.33;;;14.85;;
46415;SDS011;32620;51.704;7.822;2023-04-15T07:32:17;23.95;;;16.58;;
46415;SDS011;32620;51.704;7.822;2023-04-15T07:34:42;22.58;;;15.63;;
46415;SDS011;32620;51.704;7.822;2023-04-15T07:37:08;22.15;;;15.63;;
46415;SDS011;32620;51.704;7.822;2023-04-15T07:39:34;24.58;;;16.75;;
46415;SDS011;32620;51.704;7.822;2023-04-15T07:42:01;26.35;;;18.15;;
46415;SDS011;32620;51.704;7.822;2023-04-15T07:44:27;24.25;;;16.95;;
46415;SDS011;32620;51.704;7.822;2023-04-15T07:46:54;23.10;;;16.35;;
46415;SDS011;32620;51.704;7.822;2023-04-15T07:49:20;23.42;;;15.85;;
46415;SDS011;32620;51.704;7.822;2023-04-15T07:51:46;21.85;;;15.90;;
46415;SDS011;32620;51.704;7.822;2023-04-15T07:54:11;20.60;;;15.40;;
46415;SDS011;32620;51.704;7.822;2023-04-15T07:56:38;21.65;;;16.13;;
46415;SDS011;32620;51.704;7.822;2023-04-15T07:59:03;21.13;;;16.25;;
46415;SDS011;32620;51.704;7.822;2023-04-15T08:01:30;25.65;;;17.73;;
46415;SDS011;32620;51.704;7.822;2023-04-15T08:03:56;23.50;;;16.92;;
46415;SDS011;32620;51.704;7.822;2023-04-15T08:06:22;29.33;;;19.20;;
46415;SDS011;32620;51.704;7.822;2023-04-15T08:08:48;27.77;;;20.02;;
46415;SDS011;32620;51.704;7.822;2023-04-15T08:11:14;27.08;;;20.48;;
46415;SDS011;32620;51.704;7.822;2023-04-15T08:13:39;29.35;;;20.65;;
46415;SDS011;32620;51.704;7.822;2023-04-15T08:16:21;32.42;;;21.77;;
46415;SDS011;32620;51.704;7.822;2023-04-15T08:18:48;32.58;;;21.67;;
46415;SDS011;32620;51.704;7.822;2023-04-15T08:21:16;30.35;;;21.05;;
46415;SDS011;32620;51.704;7.822;2023-04-15T08:23:43;31.60;;;21.25;;
46415;SDS011;32620;51.704;7.822;2023-04-15T08:26:09;30.48;;;20.55;;
46415;SDS011;32620;51.704;7.822;2023-04-15T08:28:36;30.25;;;21.58;;
46415;SDS011;32620;51.704;7.822;2023-04-15T08:31:02;30.27;;;20.80;;
46415;SDS011;32620;51.704;7.822;2023-04-15T08:33:28;31.25;;;21.98;;
46415;SDS011;32620;51.704;7.822;2023-04-15T08:35:53;29.38;;;19.95;;
46415;SDS011;32620;51.704;7.822;2023-04-15T08:38:19;30.55;;;20.77;;
46415;SDS011;32620;51.704;7.822;2023-04-15T08:40:44;27.60;;;19.98;;
46415;SDS011;32620;51.704;7.822;2023-04-15T08:43:12;29.02;;;20.17;;
46415;SDS011;32620;51.704;7.822;2023-04-15T08:45:44;27.52;;;20.05;;
46415;SDS011;32620;51.704;7.822;2023-04-15T08:48:13;30.52;;;19.38;;
46415;SDS011;32620;51.704;7.822;2023-04-15T08:50:40;28.55;;;20.48;;
46415;SDS011;32620;51.704;7.822;2023-04-15T08:53:06;25.73;;;18.27;;
46415;SDS011;32620;51.704;7.822;2023-04-15T08:55:32;25.35;;;18.20;;
46415;SDS011;32620;51.704;7.822;2023-04-15T08:58:02;25.40;;;18.55;;
46415;SDS011;32620;51.704;7.822;2023-04-15T09:00:28;25.45;;;17.70;;
46415;SDS011;32620;51.704;7.822;2023-04-15T09:02:55;24.00;;;16.85;;
46415;SDS011;32620;51.704;7.822;2023-04-15T09:05:22;23.90;;;14.85;;
46415;SDS011;32620;51.704;7.822;2023-04-15T09:07:49;23.63;;;15.23;;
46415;SDS011;32620;51.704;7.822;2023-04-15T09:10:15;21.25;;;14.40;;
46415;SDS011;32620;51.704;7.822;2023-04-15T09:12:41;20.30;;;13.40;;
46415;SDS011;32620;51.704;7.822;2023-04-15T09:15:06;21.73;;;15.27;;
46415;SDS011;32620;51.704;7.822;2023-04-15T09:17:36;23.42;;;15.70;;
46415;SDS011;32620;51.704;7.822;2023-04-15T09:20:08;24.60;;;16.15;;
46415;SDS011;32620;51.704;7.822;2023-04-15T09:22:36;21.65;;;14.57;;
46415;SDS011;32620;51.704;7.822;2023-04-15T09:25:03;24.10;;;15.27;;
46415;SDS011;32620;51.704;7.822;2023-04-15T09:27:51;19.27;;;13.98;;
46415;SDS011;32620;51.704;7.822;2023-04-15T09:30:18;24.63;;;13.82;;
46415;SDS011;32620;51.704;7.822;2023-04-15T09:32:48;20.17;;;12.80;;
46415;SDS011;32620;51.704;7.822;2023-04-15T09:35:17;20.02;;;12.57;;
46415;SDS011;32620;51.704;7.822;2023-04-15T09:37:43;19.60;;;13.57;;
46415;SDS011;32620;51.704;7.822;2023-04-15T09:40:08;20.73;;;13.50;;
46415;SDS011;32620;51.704;7.822;2023-04-15T09:42:35;21.88;;;14.10;;
46415;SDS011;32620;51.704;7.822;2023-04-15T09:45:16;20.88;;;13.38;;
46415;SDS011;32620;51.704;7.822;2023-04-15T09:47:42;20.42;;;13.00;;
46415;SDS011;32620;51.704;7.822;2023-04-15T09:50:07;21.67;;;13.77;;
46415;SDS011;32620;51.704;7.822;2023-04-15T09:52:39;22.20;;;14.00;;
46415;SDS011;32620;51.704;7.822;2023-04-15T09:55:07;20.08;;;13.23;;
46415;SDS011;32620;51.704;7.822;2023-04-15T09:57:33;21.98;;;14.15;;
46415;SDS011;32620;51.704;7.822;2023-04-15T10:00:00;22.15;;;13.80;;
46415;SDS011;32620;51.704;7.822;2023-04-15T10:02:27;24.17;;;15.57;;
46415;SDS011;32620;51.704;7.822;2023-04-15T10:04:54;22.45;;;13.98;;
46415;SDS011;32620;51.704;7.822;2023-04-15T10:07:21;25.25;;;14.77;;
46415;SDS011;32620;51.704;7.822;2023-04-15T10:09:47;28.77;;;15.90;;
46415;SDS011;32620;51.704;7.822;2023-04-15T10:12:14;24.63;;;15.18;;
46415;SDS011;32620;51.704;7.822;2023-04-15T10:14:41;26.02;;;15.18;;
46415;SDS011;32620;51.704;7.822;2023-04-15T10:17:09;23.40;;;15.05;;
46415;SDS011;32620;51.704;7.822;2023-04-15T10:19:36;23.70;;;14.52;;
46415;SDS011;32620;51.704;7.822;2023-04-15T10:22:02;23.00;;;15.32;;
46415;SDS011;32620;51.704;7.822;2023-04-15T10:24:30;24.92;;;15.35;;
46415;SDS011;32620;51.704;7.822;2023-04-15T10:26:56;22.38;;;14.38;;
46415;SDS011;32620;51.704;7.822;2023-04-15T10:29:24;23.02;;;13.95;;
46415;SDS011;32620;51.704;7.822;2023-04-15T10:31:51;21.90;;;13.52;;
46415;SDS011;32620;51.704;7.822;2023-04-15T10:34:18;24.38;;;14.23;;
46415;SDS011;32620;51.704;7.822;2023-04-15T10:36:45;20.30;;;13.63;;
46415;SDS011;32620;51.704;7.822;2023-04-15T10:39:42;21.42;;;13.25;;
46415;SDS011;32620;51.704;7.822;2023-04-15T10:42:08;18.75;;;12.60;;
46415;SDS011;32620;51.704;7.822;2023-04-15T10:44:44;23.53;;;12.93;;
46415;SDS011;32620;51.704;7.822;2023-04-15T10:47:15;19.90;;;12.32;;
46415;SDS011;32620;51.704;7.822;2023-04-15T10:49:44;22.10;;;12.98;;
46415;SDS011;32620;51.704;7.822;2023-04-15T10:52:12;19.40;;;12.45;;
46415;SDS011;32620;51.704;7.822;2023-04-15T10:54:39;21.95;;;13.98;;
46415;SDS011;32620;51.704;7.822;2023-04-15T11:02:44;21.33;;;14.52;;
46415;SDS011;32620;51.704;7.822;2023-04-15T11:05:14;24.85;;;15.43;;
46415;SDS011;32620;51.704;7.822;2023-04-15T11:13:01;24.20;;;14.93;;
46415;SDS011;32620;51.704;7.822;2023-04-15T11:15:28;20.83;;;13.90;;
46415;SDS011;32620;51.704;7.822;2023-04-15T11:17:59;20.05;;;13.60;;
46415;SDS011;32620;51.704;7.822;2023-04-15T11:20:47;19.52;;;13.10;;
46415;SDS011;32620;51.704;7.822;2023-04-15T11:23:15;19.98;;;13.55;;
46415;SDS011;32620;51.704;7.822;2023-04-15T11:25:42;19.40;;;12.82;;
46415;SDS011;32620;51.704;7.822;2023-04-15T11:28:09;19.40;;;13.02;;
46415;SDS011;32620;51.704;7.822;2023-04-15T11:30:36;21.60;;;12.77;;
46415;SDS011;32620;51.704;7.822;2023-04-15T11:33:06;20.35;;;12.43;;
46415;SDS011;32620;51.704;7.822;2023-04-15T11:35:32;19.73;;;12.23;;
46415;SDS011;32620;51.704;7.822;2023-04-15T11:38:01;21.48;;;12.55;;
46415;SDS011;32620;51.704;7.822;2023-04-15T11:40:29;17.38;;;12.30;;
46415;SDS011;32620;51.704;7.822;2023-04-15T11:43:13;18.75;;;11.70;;
46415;SDS011;32620;51.704;7.822;2023-04-15T11:45:56;20.02;;;11.88;;
46415;SDS011;32620;51.704;7.822;2023-04-15T11:48:24;19.25;;;12.45;;
46415;SDS011;32620;51.704;7.822;2023-04-15T11:50:52;20.48;;;12.73;;
46415;SDS011;32620;51.704;7.822;2023-04-15T11:53:18;19.13;;;12.57;;
46415;SDS011;32620;51.704;7.822;2023-04-15T11:55:45;16.90;;;11.68;;
46415;SDS011;32620;51.704;7.822;2023-04-15T11:58:14;19.10;;;12.20;;
46415;SDS011;32620;51.704;7.822;2023-04-15T12:00:49;16.42;;;11.45;;
46415;SDS011;32620;51.704;7.822;2023-04-15T12:03:26;20.48;;;11.48;;
46415;SDS011;32620;51.704;7.822;2023-04-15T12:06:24;20.27;;;12.50;;
46415;SDS011;32620;51.704;7.822;2023-04-15T12:08:51;17.65;;;11.77;;
46415;SDS011;32620;51.704;7.822;2023-04-15T12:11:37;19.08;;;11.70;;
46415;SDS011;32620;51.704;7.822;2023-04-15T12:16:45;18.50;;;12.13;;
46415;SDS011;32620;51.704;7.822;2023-04-15T12:19:14;17.88;;;11.73;;
46415;SDS011;32620;51.704;7.822;2023-04-15T12:21:43;16.88;;;11.05;;
46415;SDS011;32620;51.704;7.822;2023-04-15T12:24:10;14.98;;;10.13;;
46415;SDS011;32620;51.704;7.822;2023-04-15T12:26:44;16.58;;;10.70;;
46415;SDS011;32620;51.704;7.822;2023-04-15T12:29:15;15.73;;;10.18;;
46415;SDS011;32620;51.704;7.822;2023-04-15T12:31:57;15.00;;;10.45;;
46415;SDS011;32620;51.704;7.822;2023-04-15T12:34:30;13.93;;;9.18;;
46415;SDS011;32620;51.704;7.822;2023-04-15T12:36:59;13.52;;;9.48;;
46415;SDS011;32620;51.704;7.822;2023-04-15T12:39:27;15.60;;;9.85;;
46415;SDS011;32620;51.704;7.822;2023-04-15T12:41:53;12.25;;;8.98;;
46415;SDS011;32620;51.704;7.822;2023-04-15T12:44:21;11.52;;;8.40;;
46415;SDS011;32620;51.704;7.822;2023-04-15T12:46:47;13.35;;;9.10;;
46415;SDS011;32620;51.704;7.822;2023-04-15T12:49:14;10.35;;;7.60;;
46415;SDS011;32620;51.704;7.822;2023-04-15T12:51:40;10.60;;;8.25;;
46415;SDS011;32620;51.704;7.822;2023-04-15T12:54:06;11.98;;;7.60;;
46415;SDS011;32620;51.704;7.822;2023-04-15T12:56:32;11.68;;;8.43;;
46415;SDS011;32620;51.704;7.822;2023-04-15T12:58:57;9.80;;;7.55;;
46415;SDS011;32620;51.704;7.822;2023-04-15T13:01:23;11.02;;;7.07;;
46415;SDS011;32620;51.704;7.822;2023-04-15T13:03:48;9.38;;;7.45;;
46415;SDS011;32620;51.704;7.822;2023-04-15T13:06:15;10.45;;;7.38;;
46415;SDS011;32620;51.704;7.822;2023-04-15T13:08:40;9.43;;;7.22;;
46415;SDS011;32620;51.704;7.822;2023-04-15T13:11:06;11.95;;;7.45;;
46415;SDS011;32620;51.704;7.822;2023-04-15T13:13:32;10.25;;;7.65;;
46415;SDS011;32620;51.704;7.822;2023-04-15T13:15:58;8.68;;;7.13;;
46415;SDS011;32620;51.704;7.822;2023-04-15T13:18:23;9.95;;;7.13;;
46415;SDS011;32620;51.704;7.822;2023-04-15T13:20:49;8.90;;;6.85;;
46415;SDS011;32620;51.704;7.822;2023-04-15T13:23:15;9.20;;;6.80;;
46415;SDS011;32620;51.704;7.822;2023-04-15T13:25:41;10.25;;;6.75;;
46415;SDS011;32620;51.704;7.822;2023-04-15T13:28:07;9.18;;;6.80;;
46415;SDS011;32620;51.704;7.822;2023-04-15T13:30:33;8.23;;;6.47;;
46415;SDS011;32620;51.704;7.822;2023-04-15T13:32:59;10.50;;;6.93;;
46415;SDS011;32620;51.704;7.822;2023-04-15T13:35:25;9.40;;;6.72;;
46415;SDS011;32620;51.704;7.822;2023-04-15T13:37:50;9.73;;;6.68;;
46415;SDS011;32620;51.704;7.822;2023-04-15T13:40:18;8.38;;;6.20;;
46415;SDS011;32620;51.704;7.822;2023-04-15T13:42:44;11.23;;;6.45;;
46415;SDS011;32620;51.704;7.822;2023-04-15T13:45:10;8.48;;;6.35;;
46415;SDS011;32620;51.704;7.822;2023-04-15T13:47:35;11.13;;;7.07;;
46415;SDS011;32620;51.704;7.822;2023-04-15T13:50:01;9.00;;;6.70;;
46415;SDS011;32620;51.704;7.822;2023-04-15T13:52:26;8.93;;;6.78;;
46415;SDS011;32620;51.704;7.822;2023-04-15T13:54:52;7.22;;;6.35;;
46415;SDS011;32620;51.704;7.822;2023-04-15T13:57:17;9.00;;;6.70;;
46415;SDS011;32620;51.704;7.822;2023-04-15T13:59:43;9.77;;;6.75;;
46415;SDS011;32620;51.704;7.822;2023-04-15T14:02:08;10.27;;;7.05;;
46415;SDS011;32620;51.704;7.822;2023-04-15T14:04:34;8.98;;;6.47;;
46415;SDS011;32620;51.704;7.822;2023-04-15T14:06:59;7.13;;;6.18;;
46415;SDS011;32620;51.704;7.822;2023-04-15T14:09:25;8.93;;;7.22;;
46415;SDS011;32620;51.704;7.822;2023-04-15T14:11:51;9.50;;;7.50;;
46415;SDS011;32620;51.704;7.822;2023-04-15T14:14:16;9.05;;;7.10;;
46415;SDS011;32620;51.704;7.822;2023-04-15T14:16:42;8.77;;;7.22;;
46415;SDS011;32620;51.704;7.822;2023-04-15T14:19:07;9.80;;;8.13;;
46415;SDS011;32620;51.704;7.822;2023-04-15T14:21:33;9.02;;;7.53;;
46415;SDS011;32620;51.704;7.822;2023-04-15T14:23:59;9.10;;;7.40;;
46415;SDS011;32620;51.704;7.822;2023-04-15T14:26:24;8.93;;;7.70;;
46415;SDS011;32620;51.704;7.822;2023-04-15T14:28:50;11.98;;;8.25;;
46415;SDS011;32620;51.704;7.822;2023-04-15T14:31:15;11.82;;;8.35;;
46415;SDS011;32620;51.704;7.822;2023-04-15T14:33:41;10.18;;;8.43;;
46415;SDS011;32620;51.704;7.822;2023-04-15T14:36:07;10.07;;;8.57;;
46415;SDS011;32620;51.704;7.822;2023-04-15T14:38:34;12.10;;;8.98;;